createdAt,value
2022-11-20T00:00:00.595Z,984.4364
2022-11-20T00:01:00.756Z,984.4704
2022-11-20T00:02:00.941Z,984.3873
2022-11-20T00:03:01.046Z,984.4764
2022-11-20T00:04:01.203Z,984.3813
2022-11-20T00:05:00.332Z,984.5401
2022-11-20T00:06:00.465Z,984.4428
2022-11-20T00:07:00.665Z,984.3873
2022-11-20T00:08:00.771Z,984.6603
2022-11-20T00:09:00.988Z,984.4622
2022-11-20T00:10:01.096Z,984.3878
2022-11-20T00:11:01.228Z,984.6649
2022-11-20T00:12:00.364Z,984.3774
2022-11-20T00:13:00.514Z,984.4617
2022-11-20T00:14:00.671Z,984.3791
2022-11-20T00:15:00.821Z,984.4066
2022-11-20T00:16:00.957Z,984.4617
2022-11-20T00:17:01.103Z,984.5021
2022-11-20T00:18:01.246Z,984.3369
2022-11-20T00:19:00.414Z,984.4049
2022-11-20T00:20:00.548Z,984.5151
2022-11-20T00:21:00.701Z,984.4471
2022-11-20T00:22:00.846Z,984.6674
2022-11-20T00:23:01.013Z,984.4832
2022-11-20T00:24:01.141Z,984.5399
2022-11-20T00:25:00.289Z,984.4715
2022-11-20T00:26:00.437Z,984.3601
2022-11-20T00:27:00.589Z,984.5124
2022-11-20T00:28:00.743Z,984.4646
2022-11-20T00:29:00.905Z,984.5399
2022-11-20T00:30:01.051Z,984.3601
2022-11-20T00:31:01.187Z,984.4362
2022-11-20T00:32:00.328Z,984.3205
2022-11-20T00:33:00.490Z,984.3756
2022-11-20T00:34:00.650Z,984.4581
2022-11-20T00:35:00.778Z,984.3205
2022-11-20T00:36:00.926Z,984.2865
2022-11-20T00:37:01.081Z,984.3841
2022-11-20T00:38:01.233Z,984.4194
2022-11-20T00:39:00.374Z,984.3643
2022-11-20T00:40:00.515Z,984.2005
2022-11-20T00:41:00.667Z,984.3106
2022-11-20T00:42:00.821Z,984.3656
2022-11-20T00:43:00.962Z,984.4628
2022-11-20T00:44:01.122Z,984.2916
2022-11-20T00:45:01.249Z,984.2916
2022-11-20T00:46:00.415Z,984.2701
2022-11-20T00:47:00.549Z,984.3398
2022-11-20T00:48:00.689Z,984.2215
2022-11-20T00:49:00.854Z,984.3093
2022-11-20T00:50:00.980Z,984.3841
2022-11-20T00:51:01.135Z,984.2766
2022-11-20T00:52:00.273Z,984.3948
2022-11-20T00:53:00.421Z,984.3608
2022-11-20T00:54:00.592Z,984.3191
2022-11-20T00:55:00.705Z,984.3204
2022-11-20T00:56:00.860Z,984.2602
2022-11-20T00:57:01.005Z,984.2327
2022-11-20T00:58:04.371Z,984.3569
2022-11-20T00:59:00.326Z,984.3569
2022-11-20T01:00:00.455Z,984.2327
2022-11-20T01:01:00.645Z,984.2735
2022-11-20T01:02:00.744Z,984.3909
2022-11-20T01:03:00.911Z,984.4055
2022-11-20T01:04:01.090Z,984.626
2022-11-20T01:05:01.212Z,984.5581
2022-11-20T01:06:00.357Z,984.3844
2022-11-20T01:07:00.542Z,984.5009
2022-11-20T01:08:00.651Z,984.3703
2022-11-20T01:09:00.809Z,984.301
2022-11-20T01:10:00.960Z,984.2808
2022-11-20T01:11:01.099Z,984.626
2022-11-20T01:12:01.248Z,984.3169
2022-11-20T01:13:00.395Z,984.2954
2022-11-20T01:14:00.558Z,984.2258
2022-11-20T01:15:00.677Z,984.3415
2022-11-20T01:16:00.823Z,984.3415
2022-11-20T01:17:00.980Z,984.3569
2022-11-20T01:18:01.122Z,984.4395
2022-11-20T01:19:00.269Z,984.1708
2022-11-20T01:20:00.404Z,984.3965
2022-11-20T01:21:00.554Z,984.3965
2022-11-20T01:22:00.694Z,984.1854
2022-11-20T01:23:00.858Z,984.2954
2022-11-20T01:24:01.010Z,984.338
2022-11-20T01:25:01.151Z,984.497
2022-11-20T01:26:00.302Z,984.4291
2022-11-20T01:27:00.454Z,984.1815
2022-11-20T01:28:00.593Z,984.1815
2022-11-20T01:29:00.758Z,984.1604
2022-11-20T01:30:01.301Z,984.1179
2022-11-20T01:31:01.038Z,984.188
2022-11-20T01:32:01.172Z,984.4291
2022-11-20T01:33:00.325Z,984.0255
2022-11-20T01:34:00.507Z,984.2455
2022-11-20T01:35:00.630Z,984.2537
2022-11-20T01:36:00.768Z,984.322
2022-11-20T01:37:00.917Z,984.1858
2022-11-20T01:38:01.077Z,984.1987
2022-11-20T01:39:01.251Z,984.3345
2022-11-20T01:40:00.369Z,984.2795
2022-11-20T01:41:00.500Z,984.2455
2022-11-20T01:42:01.874Z,984.267
2022-11-20T01:43:00.792Z,984.2606
2022-11-20T01:44:00.961Z,984.2747
2022-11-20T01:45:01.095Z,984.3637
2022-11-20T01:46:01.236Z,984.2537
2022-11-20T01:47:00.391Z,984.1505
2022-11-20T01:48:00.535Z,984.1845
2022-11-20T01:49:00.690Z,983.9512
2022-11-20T01:50:00.835Z,984.1845
2022-11-20T01:51:00.984Z,984.1815
2022-11-20T01:52:01.126Z,984.0543
2022-11-20T01:53:00.303Z,983.8892
2022-11-20T01:54:00.435Z,983.9193
2022-11-20T01:55:00.578Z,983.8514
2022-11-20T01:56:00.730Z,983.9404
2022-11-20T01:57:00.877Z,984.0483
2022-11-20T01:58:01.041Z,983.9231
2022-11-20T01:59:01.156Z,983.9653
2022-11-20T02:00:00.296Z,984.0607
2022-11-20T02:01:00.570Z,983.93
2022-11-20T02:02:00.581Z,983.8251
2022-11-20T02:03:00.729Z,983.9966
2022-11-20T02:04:00.886Z,984.0306
2022-11-20T02:05:01.032Z,983.9352
2022-11-20T02:06:01.183Z,983.8552
2022-11-20T02:07:00.442Z,984.0483
2022-11-20T02:08:00.466Z,983.9932
2022-11-20T02:09:00.608Z,984.0483
2022-11-20T02:10:00.763Z,983.93
2022-11-20T02:11:00.921Z,984.0332
2022-11-20T02:12:01.062Z,983.9253
2022-11-20T02:13:01.244Z,983.7414
2022-11-20T02:14:00.364Z,983.8282
2022-11-20T02:15:00.507Z,983.9231
2022-11-20T02:16:00.672Z,983.7783
2022-11-20T02:17:00.837Z,983.9167
2022-11-20T02:18:00.958Z,983.8028
2022-11-20T02:19:01.127Z,983.9064
2022-11-20T02:20:00.261Z,983.9614
2022-11-20T02:21:00.410Z,983.8514
2022-11-20T02:22:00.575Z,983.7414
2022-11-20T02:23:00.703Z,983.9382
2022-11-20T02:24:00.850Z,983.82
2022-11-20T02:25:00.997Z,983.6274
2022-11-20T02:26:01.135Z,983.7361
2022-11-20T02:27:00.311Z,983.9205
2022-11-20T02:28:00.440Z,983.7554
2022-11-20T02:29:00.583Z,983.6729
2022-11-20T02:30:00.732Z,983.804
2022-11-20T02:31:00.883Z,983.9059
2022-11-20T02:32:01.041Z,983.8152
2022-11-20T02:33:01.192Z,983.8087
2022-11-20T02:34:00.321Z,983.8788
2022-11-20T02:35:00.461Z,983.7829
2022-11-20T02:36:00.603Z,983.8187
2022-11-20T02:37:00.759Z,983.7856
2022-11-20T02:38:00.919Z,984.0483
2022-11-20T02:39:01.059Z,983.7753
2022-11-20T02:40:01.198Z,983.8119
2022-11-20T02:41:00.345Z,983.7505
2022-11-20T02:42:00.498Z,983.738
2022-11-20T02:43:00.641Z,983.7458
2022-11-20T02:44:00.807Z,984.0418
2022-11-20T02:45:00.941Z,983.8283
2022-11-20T02:46:01.090Z,983.6646
2022-11-20T02:47:01.245Z,983.7196
2022-11-20T02:48:00.373Z,983.8923
2022-11-20T02:49:00.553Z,983.9134
2022-11-20T02:50:00.677Z,983.8799
2022-11-20T02:51:00.830Z,983.8245
2022-11-20T02:52:00.980Z,984.0079
2022-11-20T02:53:01.131Z,983.8119
2022-11-20T02:54:00.286Z,983.8827
2022-11-20T02:55:00.424Z,983.7925
2022-11-20T02:56:00.579Z,984.0306
2022-11-20T02:57:00.727Z,983.893
2022-11-20T02:58:00.900Z,983.8788
2022-11-20T02:59:01.046Z,983.8509
2022-11-20T03:00:01.190Z,983.8152
2022-11-20T03:01:00.359Z,983.8285
2022-11-20T03:02:00.484Z,983.9515
2022-11-20T03:03:00.623Z,983.9988
2022-11-20T03:04:00.784Z,983.7523
2022-11-20T03:05:00.936Z,983.9059
2022-11-20T03:06:01.065Z,983.8737
2022-11-20T03:07:01.308Z,983.9231
2022-11-20T03:08:00.360Z,983.82
2022-11-20T03:09:00.510Z,983.8681
2022-11-20T03:10:00.676Z,983.7452
2022-11-20T03:11:00.806Z,983.9043
2022-11-20T03:12:00.961Z,983.7753
2022-11-20T03:13:01.095Z,983.8514
2022-11-20T03:14:01.252Z,983.5763
2022-11-20T03:15:00.408Z,983.9043
2022-11-20T03:16:00.533Z,983.7392
2022-11-20T03:17:00.693Z,983.7452
2022-11-20T03:18:00.816Z,983.7791
2022-11-20T03:19:00.968Z,983.8462
2022-11-20T03:20:01.107Z,983.7279
2022-11-20T03:21:01.274Z,983.749
2022-11-20T03:22:00.410Z,983.8462
2022-11-20T03:23:00.549Z,983.8462
2022-11-20T03:24:00.695Z,983.8591
2022-11-20T03:25:00.832Z,983.6205
2022-11-20T03:26:01.017Z,983.6777
2022-11-20T03:27:01.141Z,983.5919
2022-11-20T03:28:00.283Z,983.6653
2022-11-20T03:29:00.436Z,983.5448
2022-11-20T03:30:00.573Z,983.6178
2022-11-20T03:31:00.745Z,983.5757
2022-11-20T03:32:00.865Z,983.5308
2022-11-20T03:33:01.021Z,983.6258
2022-11-20T03:34:01.151Z,983.6258
2022-11-20T03:35:00.301Z,983.5859
2022-11-20T03:36:00.466Z,983.3748
2022-11-20T03:37:00.642Z,983.5013
2022-11-20T03:38:00.750Z,983.6141
2022-11-20T03:39:00.892Z,983.6227
2022-11-20T03:40:01.059Z,983.3838
2022-11-20T03:41:01.184Z,983.4938
2022-11-20T03:42:00.340Z,983.5763
2022-11-20T03:43:00.502Z,983.4938
2022-11-20T03:44:00.618Z,983.3563
2022-11-20T03:45:00.770Z,983.4113
2022-11-20T03:46:00.926Z,983.4938
2022-11-20T03:47:01.070Z,983.2058
2022-11-20T03:48:01.224Z,983.4171
2022-11-20T03:49:00.356Z,983.2149
2022-11-20T03:50:00.503Z,983.2699
2022-11-20T03:51:00.654Z,983.3621
2022-11-20T03:52:00.795Z,983.1961
2022-11-20T03:53:00.971Z,983.3482
2022-11-20T03:54:01.105Z,983.2044
2022-11-20T03:55:01.247Z,983.3427
2022-11-20T03:56:00.393Z,983.4074
2022-11-20T03:57:00.557Z,983.2264
2022-11-20T03:58:00.713Z,983.2749
2022-11-20T03:59:00.848Z,983.5123
2022-11-20T04:00:00.997Z,983.3835
2022-11-20T04:01:01.135Z,983.4106
2022-11-20T04:02:00.333Z,983.3835
2022-11-20T04:03:00.453Z,983.3835
2022-11-20T04:04:00.625Z,983.3767
2022-11-20T04:05:00.724Z,983.2932
2022-11-20T04:06:00.869Z,983.3546
2022-11-20T04:07:01.027Z,983.2382
2022-11-20T04:08:01.163Z,983.2382
2022-11-20T04:09:00.337Z,983.3468
2022-11-20T04:10:00.456Z,983.4352
2022-11-20T04:11:00.602Z,983.2254
2022-11-20T04:12:00.737Z,983.7215
2022-11-20T04:13:00.885Z,983.5292
2022-11-20T04:14:01.052Z,983.3767
2022-11-20T04:15:01.193Z,983.3835
2022-11-20T04:16:00.339Z,983.2685
2022-11-20T04:17:00.505Z,983.6548
2022-11-20T04:18:00.639Z,983.2933
2022-11-20T04:19:00.790Z,983.6548
2022-11-20T04:20:00.958Z,983.3418
2022-11-20T04:21:01.087Z,983.6617
2022-11-20T04:22:01.244Z,983.1961
2022-11-20T04:23:00.379Z,983.3121
2022-11-20T04:24:00.539Z,983.2594
2022-11-20T04:25:00.707Z,983.2511
2022-11-20T04:26:00.839Z,983.5688
2022-11-20T04:27:00.987Z,983.291
2022-11-20T04:28:01.131Z,983.3524
2022-11-20T04:29:00.279Z,983.2424
2022-11-20T04:30:00.440Z,983.2511
2022-11-20T04:31:00.583Z,983.2383
2022-11-20T04:32:00.726Z,983.2603
2022-11-20T04:33:00.911Z,983.5123
2022-11-20T04:34:01.026Z,983.4784
2022-11-20T04:35:01.184Z,983.4784
2022-11-20T04:36:00.313Z,983.241
2022-11-20T04:37:00.459Z,983.3767
2022-11-20T04:38:00.624Z,983.4106
2022-11-20T04:39:00.749Z,983.5462
2022-11-20T04:40:00.897Z,983.1924
2022-11-20T04:41:01.040Z,983.3835
2022-11-20T04:42:01.194Z,983.2918
2022-11-20T04:43:00.372Z,983.2606
2022-11-20T04:44:00.834Z,983.1379
2022-11-20T04:45:00.633Z,983.219
2022-11-20T04:46:00.786Z,983.3738
2022-11-20T04:47:00.934Z,983.3528
2022-11-20T04:48:01.091Z,983.2757
2022-11-20T04:49:01.241Z,983.3692
2022-11-20T04:50:00.459Z,983.3756
2022-11-20T04:51:00.519Z,983.4705
2022-11-20T04:52:00.677Z,983.4481
2022-11-20T04:53:00.826Z,983.3917
2022-11-20T04:54:00.963Z,983.1462
2022-11-20T04:55:01.107Z,983.3143
2022-11-20T04:56:01.254Z,983.1833
2022-11-20T04:57:00.404Z,983.4611
2022-11-20T04:58:00.587Z,983.446
2022-11-20T04:59:00.703Z,983.2658
2022-11-20T05:00:00.854Z,983.2933
2022-11-20T05:01:00.998Z,983.446
2022-11-20T05:02:01.220Z,983.2044
2022-11-20T05:03:00.307Z,983.3143
2022-11-20T05:04:00.437Z,983.2383
2022-11-20T05:05:00.585Z,983.3061
2022-11-20T05:06:00.733Z,983.4395
2022-11-20T05:07:00.898Z,983.1961
2022-11-20T05:08:01.052Z,983.2933
2022-11-20T05:09:01.197Z,983.3666
2022-11-20T05:10:00.327Z,983.1462
2022-11-20T05:11:00.476Z,983.2918
2022-11-20T05:12:00.610Z,983.0816
2022-11-20T05:13:00.763Z,983.2464
2022-11-20T05:14:00.940Z,983.0619
2022-11-20T05:15:01.066Z,983.2478
2022-11-20T05:16:01.217Z,983.3756
2022-11-20T05:17:00.358Z,983.1594
2022-11-20T05:18:00.507Z,983.1109
2022-11-20T05:19:00.668Z,983.1718
2022-11-20T05:20:00.802Z,983.1658
2022-11-20T05:21:00.966Z,983.2107
2022-11-20T05:22:01.083Z,983.1443
2022-11-20T05:23:01.246Z,983.1122
2022-11-20T05:24:00.396Z,983.0299
2022-11-20T05:25:00.543Z,983.0848
2022-11-20T05:26:00.695Z,983.0848
2022-11-20T05:27:00.831Z,983.1672
2022-11-20T05:28:00.977Z,983.0024
2022-11-20T05:29:01.141Z,982.9749
2022-11-20T05:30:00.276Z,983.1736
2022-11-20T05:31:00.423Z,983.0651
2022-11-20T05:32:00.569Z,983.0848
2022-11-20T05:33:00.720Z,982.9891
2022-11-20T05:34:00.886Z,983.0363
2022-11-20T05:35:01.038Z,983.0024
2022-11-20T05:36:01.162Z,983.0216
2022-11-20T05:37:00.324Z,982.9264
2022-11-20T05:38:00.475Z,983.0619
2022-11-20T05:39:01.925Z,983.1296
2022-11-20T05:40:00.752Z,982.9571
2022-11-20T05:41:00.919Z,982.9488
2022-11-20T05:42:01.050Z,983.022
2022-11-20T05:43:01.184Z,983.001
2022-11-20T05:44:00.346Z,983.0816
2022-11-20T05:45:00.495Z,983.0408
2022-11-20T05:46:00.659Z,983.0834
2022-11-20T05:47:00.783Z,982.9735
2022-11-20T05:48:00.943Z,983.028
2022-11-20T05:49:01.082Z,982.9122
2022-11-20T05:50:01.225Z,983.0344
2022-11-20T05:51:00.386Z,983.1155
2022-11-20T05:52:00.510Z,983.1833
2022-11-20T05:53:00.688Z,983.1155
2022-11-20T05:54:00.801Z,983.0816
2022-11-20T05:55:00.958Z,982.8956
2022-11-20T05:56:01.120Z,982.821
2022-11-20T05:57:01.244Z,983.0495
2022-11-20T05:58:00.400Z,982.9149
2022-11-20T05:59:00.558Z,982.8746
2022-11-20T06:00:00.702Z,982.9149
2022-11-20T06:01:00.899Z,982.8824
2022-11-20T06:02:01.020Z,983.1022
2022-11-20T06:03:01.253Z,983.1443
2022-11-20T06:04:00.304Z,982.9246
2022-11-20T06:05:00.456Z,982.9941
2022-11-20T06:06:00.623Z,983.0088
2022-11-20T06:07:00.805Z,982.9749
2022-11-20T06:08:00.921Z,982.92
2022-11-20T06:09:01.038Z,983.2413
2022-11-20T06:10:01.201Z,983.1122
2022-11-20T06:11:00.362Z,982.8651
2022-11-20T06:12:00.524Z,982.9827
2022-11-20T06:13:00.642Z,983.0102
2022-11-20T06:14:00.793Z,982.9278
2022-11-20T06:15:00.934Z,983.0102
2022-11-20T06:16:01.079Z,983.0651
2022-11-20T06:17:01.258Z,982.8925
2022-11-20T06:18:00.378Z,982.9941
2022-11-20T06:19:00.519Z,983.0669
2022-11-20T06:20:00.671Z,982.9763
2022-11-20T06:21:00.824Z,982.9396
2022-11-20T06:22:00.985Z,982.946
2022-11-20T06:23:01.115Z,983.0408
2022-11-20T06:24:01.316Z,983.0816
2022-11-20T06:25:00.395Z,982.7396
2022-11-20T06:26:00.545Z,983.0816
2022-11-20T06:27:00.717Z,983.1155
2022-11-20T06:28:00.841Z,982.8343
2022-11-20T06:29:00.987Z,982.8618
2022-11-20T06:30:01.139Z,983.1155
2022-11-20T06:31:00.289Z,983.0816
2022-11-20T06:32:00.440Z,982.7382
2022-11-20T06:33:00.602Z,982.821
2022-11-20T06:34:00.723Z,982.9122
2022-11-20T06:35:00.870Z,982.9122
2022-11-20T06:36:03.436Z,983.1594
2022-11-20T06:37:01.152Z,982.9122
2022-11-20T06:38:00.320Z,983.022
2022-11-20T06:39:00.454Z,983.077
2022-11-20T06:40:00.593Z,982.9122
2022-11-20T06:41:00.747Z,983.0816
2022-11-20T06:42:00.896Z,982.7593
2022-11-20T06:43:01.051Z,983.0816
2022-11-20T06:44:01.187Z,983.2171
2022-11-20T06:45:00.321Z,983.072
2022-11-20T06:46:00.475Z,982.8874
2022-11-20T06:47:00.623Z,982.9895
2022-11-20T06:48:00.805Z,982.9808
2022-11-20T06:49:00.916Z,982.8246
2022-11-20T06:50:01.066Z,983.017
2022-11-20T06:51:01.223Z,982.6219
2022-11-20T06:52:00.368Z,982.7871
2022-11-20T06:53:00.540Z,982.821
2022-11-20T06:54:00.666Z,983.1155
2022-11-20T06:55:00.821Z,982.9634
2022-11-20T06:56:00.965Z,982.7044
2022-11-20T06:57:01.122Z,983.0816
2022-11-20T06:58:00.292Z,983.0816
2022-11-20T06:59:00.404Z,983.017
2022-11-20T07:00:00.561Z,982.8246
2022-11-20T07:01:00.799Z,983.055
2022-11-20T07:02:00.855Z,982.8988
2022-11-20T07:03:01.012Z,982.9194
2022-11-20T07:04:01.146Z,982.9345
2022-11-20T07:05:00.295Z,983.3835
2022-11-20T07:06:00.437Z,982.9112
2022-11-20T07:07:00.668Z,982.9212
2022-11-20T07:08:00.748Z,983.1169
2022-11-20T07:09:00.886Z,983.2287
2022-11-20T07:10:01.028Z,983.2751
2022-11-20T07:11:01.163Z,983.1504
2022-11-20T07:12:00.334Z,983.1407
2022-11-20T07:13:00.464Z,983.1536
2022-11-20T07:14:00.605Z,983.3573
2022-11-20T07:15:00.758Z,983.1908
2022-11-20T07:16:00.892Z,983.1068
2022-11-20T07:17:01.061Z,983.0729
2022-11-20T07:18:01.216Z,982.9628
2022-11-20T07:19:00.331Z,983.1004
2022-11-20T07:20:00.484Z,983.0453
2022-11-20T07:21:00.626Z,982.9444
2022-11-20T07:22:00.779Z,983.0357
2022-11-20T07:23:00.941Z,982.8912
2022-11-20T07:24:01.078Z,983.027
2022-11-20T07:25:01.247Z,982.9706
2022-11-20T07:26:00.352Z,982.9476
2022-11-20T07:27:00.504Z,982.8164
2022-11-20T07:28:00.659Z,982.8715
2022-11-20T07:29:00.804Z,982.7943
2022-11-20T07:30:00.966Z,982.915
2022-11-20T07:31:01.112Z,983.1876
2022-11-20T07:32:00.288Z,983.0499
2022-11-20T07:33:00.387Z,982.7426
2022-11-20T07:34:00.534Z,983.0224
2022-11-20T07:35:00.689Z,982.836
2022-11-20T07:36:00.848Z,982.9655
2022-11-20T07:37:02.948Z,982.8061
2022-11-20T07:38:01.166Z,982.9135
2022-11-20T07:39:00.295Z,983.0155
2022-11-20T07:40:00.437Z,982.7392
2022-11-20T07:41:00.590Z,982.7447
2022-11-20T07:42:00.726Z,982.6354
2022-11-20T07:43:00.899Z,982.7295
2022-11-20T07:44:01.021Z,982.6661
2022-11-20T07:45:01.173Z,982.6904
2022-11-20T07:46:00.323Z,982.7848
2022-11-20T07:47:00.474Z,982.9469
2022-11-20T07:48:00.642Z,982.7339
2022-11-20T07:49:00.775Z,982.8481
2022-11-20T07:50:00.915Z,982.7371
2022-11-20T07:51:01.056Z,983.0591
2022-11-20T07:52:04.863Z,982.8596
2022-11-20T07:53:00.375Z,982.7847
2022-11-20T07:54:00.496Z,982.8481
2022-11-20T07:55:00.656Z,982.7192
2022-11-20T07:56:00.817Z,982.6512
2022-11-20T07:57:00.949Z,982.9469
2022-11-20T07:58:01.133Z,982.8918
2022-11-20T07:59:01.264Z,982.6512
2022-11-20T08:00:00.397Z,982.5735
2022-11-20T08:01:00.698Z,982.5992
2022-11-20T08:02:00.679Z,982.7485
2022-11-20T08:03:00.852Z,982.9598
2022-11-20T08:04:00.971Z,982.7039
2022-11-20T08:05:01.133Z,982.6344
2022-11-20T08:06:00.274Z,982.7314
2022-11-20T08:07:00.464Z,982.73
2022-11-20T08:08:00.578Z,982.5369
2022-11-20T08:09:00.731Z,982.5419
2022-11-20T08:10:00.871Z,982.5547
2022-11-20T08:11:01.018Z,982.5533
2022-11-20T08:12:01.164Z,982.6407
2022-11-20T08:13:00.301Z,982.5274
2022-11-20T08:14:00.466Z,982.5403
2022-11-20T08:15:00.602Z,982.601
2022-11-20T08:16:00.744Z,982.5867
2022-11-20T08:17:00.921Z,982.5103
2022-11-20T08:18:28.853Z,982.5867
2022-11-20T08:19:01.220Z,982.4353
2022-11-20T08:20:00.367Z,982.595
2022-11-20T08:21:00.512Z,982.4486
2022-11-20T08:22:00.680Z,982.6888
2022-11-20T08:23:00.851Z,982.6938
2022-11-20T08:24:00.975Z,982.5686
2022-11-20T08:25:01.127Z,982.5608
2022-11-20T08:26:00.270Z,982.6625
2022-11-20T08:27:00.413Z,982.4617
2022-11-20T08:28:02.162Z,982.3769
2022-11-20T08:29:00.723Z,982.3834
2022-11-20T08:30:00.854Z,982.4515
2022-11-20T08:31:01.003Z,982.492
2022-11-20T08:32:01.150Z,982.4422
2022-11-20T08:33:00.300Z,982.5158
2022-11-20T08:34:00.474Z,982.7207
2022-11-20T08:35:00.596Z,982.6299
2022-11-20T08:36:00.749Z,982.5239
2022-11-20T08:37:00.891Z,982.4657
2022-11-20T08:38:01.041Z,982.5127
2022-11-20T08:39:01.215Z,982.5661
2022-11-20T08:40:00.335Z,982.5025
2022-11-20T08:41:00.481Z,982.673
2022-11-20T08:42:00.640Z,982.8704
2022-11-20T08:43:00.786Z,982.6387
2022-11-20T08:44:00.950Z,982.6972
2022-11-20T08:45:01.094Z,982.7087
2022-11-20T08:46:01.224Z,982.6583
2022-11-20T08:47:00.366Z,982.849
2022-11-20T08:48:00.547Z,982.4473
2022-11-20T08:49:00.650Z,982.6171
2022-11-20T08:50:00.804Z,982.63
2022-11-20T08:51:00.959Z,982.6904
2022-11-20T08:52:01.098Z,982.8882
2022-11-20T08:53:01.267Z,982.6188
2022-11-20T08:54:00.410Z,982.604
2022-11-20T08:55:00.565Z,982.5892
2022-11-20T08:56:00.715Z,982.4829
2022-11-20T08:57:00.860Z,982.4707
2022-11-20T08:58:01.034Z,982.7322
2022-11-20T08:59:31.304Z,982.655
2022-11-20T09:00:06.919Z,982.564
2022-11-20T09:01:00.490Z,982.3897
2022-11-20T09:02:00.617Z,982.3665
2022-11-20T09:03:00.758Z,982.5915
2022-11-20T09:04:00.928Z,982.3057
2022-11-20T09:05:01.048Z,982.3296
2022-11-20T09:06:01.209Z,982.5145
2022-11-20T09:07:00.413Z,982.5274
2022-11-20T09:08:00.498Z,982.3525
2022-11-20T09:09:06.162Z,982.4894
2022-11-20T09:10:22.595Z,982.3918
2022-11-20T09:11:00.936Z,982.4801
2022-11-20T09:12:01.076Z,982.5531
2022-11-20T09:13:01.229Z,982.5646
2022-11-20T09:14:00.384Z,982.509
2022-11-20T09:15:00.551Z,982.5284
2022-11-20T09:16:00.677Z,982.6362
2022-11-20T09:17:00.832Z,982.419
2022-11-20T09:18:00.975Z,982.3356
2022-11-20T09:19:34.203Z,982.3615
2022-11-20T09:20:00.295Z,982.2831
2022-11-20T09:21:00.476Z,982.3298
2022-11-20T09:22:00.561Z,982.4539
2022-11-20T09:23:00.716Z,982.5081
2022-11-20T09:24:00.865Z,982.4719
2022-11-20T09:25:01.025Z,982.552
2022-11-20T09:26:01.146Z,982.3851
2022-11-20T09:27:00.295Z,982.3017
2022-11-20T09:28:00.455Z,982.4244
2022-11-20T09:29:00.589Z,982.5436
2022-11-20T09:30:00.758Z,982.4523
2022-11-20T09:31:00.886Z,982.4031
2022-11-20T09:32:01.032Z,982.4865
2022-11-20T09:33:01.171Z,982.6306
2022-11-20T09:34:00.329Z,982.3585
2022-11-20T09:36:00.619Z,982.4683
2022-11-20T09:37:03.149Z,982.4729
2022-11-20T09:38:00.909Z,982.5271
2022-11-20T09:39:01.067Z,982.3448
2022-11-20T09:40:01.237Z,982.309
2022-11-20T09:41:00.350Z,982.6266
2022-11-20T09:42:00.503Z,982.5069
2022-11-20T09:43:00.638Z,982.5741
2022-11-20T09:44:00.796Z,982.602
2022-11-20T09:45:00.951Z,982.4901
2022-11-20T09:46:01.106Z,982.4901
2022-11-20T09:47:01.228Z,982.4628
2022-11-20T09:48:00.372Z,982.4623
2022-11-20T09:49:00.518Z,982.53
2022-11-20T09:50:00.685Z,982.5151
2022-11-20T09:51:00.816Z,982.631
2022-11-20T09:52:00.974Z,982.8167
2022-11-20T09:53:01.127Z,982.6426
2022-11-20T09:54:01.256Z,982.5715
2022-11-20T09:55:00.429Z,982.7113
2022-11-20T09:56:00.581Z,982.5098
2022-11-20T09:57:00.745Z,982.7999
2022-11-20T09:58:00.865Z,982.4392
2022-11-20T09:59:01.020Z,982.6258
2022-11-20T10:00:01.150Z,982.6258
2022-11-20T10:01:00.368Z,982.4721
2022-11-20T10:02:00.446Z,982.5886
2022-11-20T10:03:00.609Z,982.726
2022-11-20T10:04:00.748Z,982.6573
2022-11-20T10:05:00.896Z,982.3638
2022-11-20T10:06:01.061Z,982.5161
2022-11-20T10:07:29.842Z,982.4296
2022-11-20T10:08:00.369Z,982.3182
2022-11-20T10:09:00.473Z,982.3376
2022-11-20T10:10:00.636Z,982.3287
2022-11-20T10:11:00.800Z,982.3904
2022-11-20T10:12:00.928Z,982.271
2022-11-20T10:13:01.076Z,982.2008
2022-11-20T10:14:01.225Z,982.4512
2022-11-20T10:15:00.375Z,982.4368
2022-11-20T10:16:00.533Z,982.3811
2022-11-20T10:17:00.686Z,982.3383
2022-11-20T10:18:00.813Z,982.3731
2022-11-20T10:19:00.965Z,982.4548
2022-11-20T10:20:01.109Z,982.4743
2022-11-20T10:21:00.253Z,982.3543
2022-11-20T10:22:00.432Z,982.3813
2022-11-20T10:23:00.560Z,982.4286
2022-11-20T10:24:00.711Z,982.4202
2022-11-20T10:25:00.862Z,982.6888
2022-11-20T10:26:01.015Z,982.7167
2022-11-20T10:27:01.162Z,982.6953
2022-11-20T10:28:00.300Z,982.4507
2022-11-20T10:29:03.438Z,982.6446
2022-11-20T10:30:00.627Z,982.5544
2022-11-20T10:31:00.778Z,982.4065
2022-11-20T10:32:00.937Z,982.3701
2022-11-20T10:33:01.111Z,982.2301
2022-11-20T10:34:12.619Z,982.431
2022-11-20T10:35:00.381Z,982.3542
2022-11-20T10:36:00.529Z,982.3174
2022-11-20T10:37:00.671Z,982.3155
2022-11-20T10:38:00.840Z,982.2452
2022-11-20T10:39:00.970Z,982.2437
2022-11-20T10:40:01.137Z,982.3126
2022-11-20T10:41:00.282Z,982.2692
2022-11-20T10:42:00.436Z,982.171
2022-11-20T10:43:00.617Z,982.1411
2022-11-20T10:44:00.725Z,982.3202
2022-11-20T10:45:04.401Z,982.4579
2022-11-20T10:46:01.014Z,982.1557
2022-11-20T10:47:01.166Z,982.2575
2022-11-20T10:48:00.334Z,982.0535
2022-11-20T10:49:00.468Z,982.1782
2022-11-20T10:50:00.603Z,982.0989
2022-11-20T10:51:00.750Z,982.2801
2022-11-20T10:52:00.900Z,982.309
2022-11-20T10:53:01.056Z,982.1269
2022-11-20T10:54:01.214Z,982.2521
2022-11-20T10:55:00.338Z,982.2372
2022-11-20T10:56:00.489Z,982.043
2022-11-20T10:57:00.636Z,982.1618
2022-11-20T10:58:00.828Z,982.076
2022-11-20T10:59:00.951Z,982.0545
2022-11-20T11:00:01.104Z,982.0545
2022-11-20T11:01:01.262Z,982.0675
2022-11-20T11:02:03.213Z,982.048
2022-11-20T11:03:00.569Z,981.9557
2022-11-20T11:04:00.695Z,982.1319
2022-11-20T11:05:00.844Z,982.061
2022-11-20T11:06:00.997Z,982.1793
2022-11-20T11:07:01.227Z,982.0675
2022-11-20T11:08:00.306Z,981.9472
2022-11-20T11:09:00.430Z,982.127
2022-11-20T11:10:00.576Z,982.2108
2022-11-20T11:11:00.722Z,982.0031
2022-11-20T11:12:06.786Z,981.9472
2022-11-20T11:13:01.049Z,982.127
2022-11-20T11:14:01.161Z,981.9872
2022-11-20T11:15:00.302Z,981.9442
2022-11-20T11:16:00.455Z,982.0476
2022-11-20T11:17:00.597Z,982.0756
2022-11-20T11:18:00.773Z,981.9622
2022-11-20T11:19:00.893Z,982.0866
2022-11-20T11:20:01.080Z,981.9737
2022-11-20T11:21:01.215Z,981.8898
2022-11-20T11:22:00.349Z,981.8963
2022-11-20T11:23:00.558Z,982.0706
2022-11-20T11:24:19.596Z,981.9867
2022-11-20T11:25:00.813Z,981.9028
2022-11-20T11:26:00.969Z,981.9308
2022-11-20T11:27:01.118Z,982.0617
2022-11-20T11:28:00.278Z,981.7884
2022-11-20T11:29:00.410Z,981.761
2022-11-20T11:30:00.552Z,981.8449
2022-11-20T11:31:00.702Z,981.8379
2022-11-20T11:32:00.854Z,981.8379
2022-11-20T11:33:01.027Z,981.6765
2022-11-20T11:34:01.146Z,981.8639
2022-11-20T11:35:00.302Z,981.6535
2022-11-20T11:36:00.449Z,981.8149
2022-11-20T11:37:00.595Z,981.7095
2022-11-20T11:38:00.770Z,981.9053
2022-11-20T11:39:00.898Z,981.7095
2022-11-20T11:40:23.473Z,981.9053
2022-11-20T11:41:01.185Z,981.9053
2022-11-20T11:42:00.319Z,981.737
2022-11-20T11:43:00.491Z,981.8768
2022-11-20T11:44:00.609Z,981.6255
2022-11-20T11:45:00.761Z,981.7375
2022-11-20T11:46:00.907Z,981.8129
2022-11-20T11:47:01.040Z,981.8544